Time;durP1;ratioP1;P1;durP2;ratioP2;P2;SDS_P1;SDS_P2;PMS_P1;PMS_P2;Temp;Humidity;BMP_temperature;BMP_pressure;BME280_temperature;BME280_humidity;BME280_pressure;Samples;Min_cycle;Max_cycle;Signal;HPM_P1;HPM_P2
2022/07/31 00:01:48;;;;;;;3.40;3.10;;;20.00;99.90;;;;;;5014681;28;20034;-65
2022/07/31 00:04:14;;;;;;;3.67;3.35;;;20.00;99.90;;;;;;5017647;28;20068;-65
2022/07/31 00:06:42;;;;;;;4.13;3.83;;;20.00;99.90;;;;;;5014804;28;20104;-64
2022/07/31 00:09:08;;;;;;;4.28;3.85;;;20.00;99.90;;;;;;5016411;28;20525;-64
2022/07/31 00:11:33;;;;;;;3.83;3.47;;;20.00;99.90;;;;;;5010322;28;20026;-64
2022/07/31 00:13:59;;;;;;;3.13;2.80;;;20.00;99.90;;;;;;5010098;28;20037;-64
2022/07/31 00:16:25;;;;;;;3.35;3.00;;;19.90;99.90;;;;;;5013661;28;20037;-64
2022/07/31 00:18:50;;;;;;;2.28;2.17;;;19.80;99.90;;;;;;5020586;28;20109;-65
2022/07/31 00:21:17;;;;;;;3.10;2.60;;;19.80;99.90;;;;;;5011967;28;20037;-65
2022/07/31 00:23:43;;;;;;;3.72;3.08;;;19.80;99.90;;;;;;5012679;28;20030;-65
2022/07/31 00:26:09;;;;;;;3.38;3.08;;;19.70;99.90;;;;;;5014813;28;20034;-65
2022/07/31 00:28:35;;;;;;;2.88;2.50;;;19.70;99.90;;;;;;5016929;28;20041;-74
2022/07/31 00:31:02;;;;;;;3.03;2.83;;;19.70;99.90;;;;;;5012796;28;20045;-75
2022/07/31 00:33:28;;;;;;;3.00;2.80;;;19.60;99.90;;;;;;5011888;28;20136;-75
2022/07/31 00:35:53;;;;;;;3.42;2.80;;;19.60;99.90;;;;;;5016360;28;20108;-75
2022/07/31 00:38:19;;;;;;;4.03;2.95;;;19.60;99.90;;;;;;5013619;28;20191;-75
2022/07/31 00:40:46;;;;;;;3.75;2.97;;;19.50;99.90;;;;;;5017792;28;20018;-75
2022/07/31 00:43:13;;;;;;;3.40;3.10;;;19.50;99.90;;;;;;5011308;28;20040;-74
2022/07/31 00:45:39;;;;;;;3.40;3.10;;;19.50;99.90;;;;;;5015078;28;20060;-74
2022/07/31 00:48:05;;;;;;;4.40;3.10;;;19.40;99.90;;;;;;5013532;28;20465;-75
2022/07/31 00:50:31;;;;;;;3.15;2.85;;;19.40;99.90;;;;;;5015178;28;20017;-76
2022/07/31 00:52:57;;;;;;;3.40;3.10;;;19.40;99.90;;;;;;5019623;28;20034;-75
2022/07/31 00:55:22;;;;;;;3.10;2.90;;;19.40;99.90;;;;;;5024280;28;20048;-73
2022/07/31 00:57:48;;;;;;;4.57;3.35;;;19.30;99.90;;;;;;5025983;28;20073;-74
2022/07/31 01:00:14;;;;;;;2.70;2.50;;;19.30;99.90;;;;;;5025187;28;20160;-75
2022/07/31 01:02:40;;;;;;;2.55;2.10;;;19.30;99.90;;;;;;5021444;28;20044;-75
2022/07/31 01:05:06;;;;;;;2.97;2.45;;;19.40;99.90;;;;;;5021419;28;20021;-74
2022/07/31 01:07:32;;;;;;;3.08;2.10;;;19.40;99.90;;;;;;5013535;28;20365;-74
2022/07/31 01:09:59;;;;;;;2.90;1.80;;;19.50;99.90;;;;;;5020848;28;20033;-75
2022/07/31 01:12:38;;;;;;;2.20;2.00;;;19.60;99.90;;;;;;5014104;28;20037;-74
2022/07/31 01:15:08;;;;;;;1.95;1.85;;;19.60;99.90;;;;;;5019106;28;20033;-74
2022/07/31 01:17:37;;;;;;;2.13;1.60;;;19.60;99.90;;;;;;5020204;28;20156;-72
2022/07/31 01:20:04;;;;;;;1.40;1.30;;;19.60;99.90;;;;;;5016294;28;20701;-73
2022/07/31 01:22:56;;;;;;;1.38;1.27;;;19.50;99.90;;;;;;5015112;28;20111;-73
2022/07/31 01:25:57;;;;;;;1.90;1.30;;;19.50;99.90;;;;;;5016401;28;20030;-74
2022/07/31 01:29:14;;;;;;;1.40;1.30;;;19.50;99.90;;;;;;5018454;28;20182;-71
2022/07/31 01:31:55;;;;;;;1.20;1.10;;;19.40;99.90;;;;;;5016645;28;20112;-73
2022/07/31 01:34:33;;;;;;;1.17;1.00;;;19.20;99.90;;;;;;5013329;28;20034;-73
2022/07/31 01:37:28;;;;;;;0.95;0.95;;;19.20;99.90;;;;;;5016043;28;20514;-72
2022/07/31 01:40:28;;;;;;;1.85;0.80;;;19.20;99.90;;;;;;5015770;28;20049;-73
2022/07/31 01:43:04;;;;;;;1.20;1.10;;;19.20;99.90;;;;;;5031762;28;20022;-73
2022/07/31 01:45:31;;;;;;;2.33;1.00;;;19.20;99.90;;;;;;5017525;28;20041;-73
2022/07/31 01:47:59;;;;;;;0.75;0.75;;;19.30;99.90;;;;;;5018551;28;20045;-74
2022/07/31 01:50:25;;;;;;;0.88;0.88;;;19.30;99.90;;;;;;5018590;28;20087;-73
2022/07/31 01:52:53;;;;;;;0.82;0.82;;;19.20;99.90;;;;;;5017913;28;20022;-73
2022/07/31 01:55:19;;;;;;;0.60;0.60;;;19.30;99.90;;;;;;5015120;28;20037;-74
2022/07/31 01:57:47;;;;;;;0.82;0.63;;;19.30;99.90;;;;;;5015185;28;20025;-74
2022/07/31 02:00:13;;;;;;;0.82;0.80;;;19.20;99.90;;;;;;5014949;28;20104;-77
2022/07/31 02:02:40;;;;;;;0.80;0.80;;;19.10;99.90;;;;;;5012662;28;20915;-75
2022/07/31 02:05:06;;;;;;;0.70;0.70;;;19.10;99.90;;;;;;5011939;28;20029;-76
2022/07/31 02:07:40;;;;;;;0.95;0.70;;;19.10;99.90;;;;;;5011333;28;20152;-68
2022/07/31 02:10:08;;;;;;;0.60;0.60;;;19.10;99.90;;;;;;5010475;28;20051;-80
2022/07/31 02:12:36;;;;;;;0.57;0.57;;;19.00;99.90;;;;;;5016625;28;20025;-82
2022/07/31 02:15:07;;;;;;;0.70;0.70;;;19.00;99.90;;;;;;5013965;28;21226;-79
2022/07/31 02:17:33;;;;;;;0.70;0.60;;;19.10;99.90;;;;;;5018348;28;20030;-80
2022/07/31 02:20:02;;;;;;;1.95;0.80;;;19.00;99.90;;;;;;5020759;28;20498;-78
2022/07/31 02:22:28;;;;;;;0.60;0.60;;;19.00;99.90;;;;;;5037413;28;20120;-79
2022/07/31 02:24:54;;;;;;;0.70;0.70;;;19.00;99.90;;;;;;5017003;28;20079;-77
2022/07/31 02:27:22;;;;;;;0.60;0.60;;;19.00;99.90;;;;;;5017782;28;20037;-77
2022/07/31 02:29:48;;;;;;;0.60;0.60;;;19.10;99.90;;;;;;5015335;28;20152;-79
2022/07/31 02:32:16;;;;;;;0.85;0.85;;;19.10;99.90;;;;;;5012295;28;20021;-77
2022/07/31 02:34:43;;;;;;;3.13;0.70;;;19.00;99.90;;;;;;5021798;28;20037;-80
2022/07/31 02:37:10;;;;;;;0.60;0.60;;;19.00;99.90;;;;;;5016519;28;20045;-76
2022/07/31 02:39:36;;;;;;;0.80;0.80;;;19.00;99.90;;;;;;5019792;28;20033;-79
2022/07/31 02:42:03;;;;;;;1.05;0.90;;;19.00;99.90;;;;;;5013489;28;20494;-78
2022/07/31 02:44:30;;;;;;;0.82;0.80;;;19.00;99.90;;;;;;5019530;28;20052;-78
2022/07/31 02:46:58;;;;;;;0.75;0.75;;;19.00;99.90;;;;;;5010327;28;20509;-75
2022/07/31 02:49:25;;;;;;;3.13;0.90;;;18.90;99.90;;;;;;5015944;28;20486;-77
2022/07/31 02:51:51;;;;;;;0.80;0.80;;;18.90;99.90;;;;;;5017971;28;20025;-79
2022/07/31 02:54:17;;;;;;;1.55;0.70;;;18.90;99.90;;;;;;5016002;28;20021;-77
2022/07/31 02:56:44;;;;;;;1.45;0.82;;;18.90;99.90;;;;;;5017161;28;20040;-79
2022/07/31 02:59:09;;;;;;;1.00;1.00;;;18.90;99.90;;;;;;5018271;28;20026;-79
2022/07/31 03:01:36;;;;;;;1.40;1.10;;;18.90;99.90;;;;;;5011540;28;20387;-78
2022/07/31 03:04:01;;;;;;;0.82;0.82;;;18.80;99.90;;;;;;5009835;28;20044;-78
2022/07/31 03:06:27;;;;;;;2.45;1.15;;;18.90;99.90;;;;;;5017216;28;20034;-77
2022/07/31 03:08:53;;;;;;;0.90;0.90;;;18.90;99.90;;;;;;5010760;28;20053;-76
2022/07/31 03:11:18;;;;;;;1.13;1.13;;;18.80;99.90;;;;;;5011849;28;20025;-75
2022/07/31 03:13:45;;;;;;;1.10;1.05;;;18.70;99.90;;;;;;5017166;28;20036;-77
2022/07/31 03:16:11;;;;;;;0.90;0.90;;;18.70;99.90;;;;;;5017242;28;20025;-77
2022/07/31 03:18:39;;;;;;;1.05;1.05;;;18.60;99.90;;;;;;5012573;28;20494;-75
2022/07/31 03:21:08;;;;;;;1.30;1.10;;;18.60;99.90;;;;;;5019589;28;20025;-76
2022/07/31 03:23:37;;;;;;;1.20;1.10;;;18.60;99.90;;;;;;5017138;28;20092;-76
2022/07/31 03:26:04;;;;;;;1.10;1.10;;;18.50;99.90;;;;;;5011670;28;20481;-74
2022/07/31 03:28:29;;;;;;;1.48;1.02;;;18.50;99.90;;;;;;5016859;28;20052;-76
2022/07/31 03:30:55;;;;;;;1.55;0.98;;;18.50;99.90;;;;;;5015406;28;20025;-74
2022/07/31 03:33:22;;;;;;;1.00;1.00;;;18.50;99.90;;;;;;5013358;28;20037;-74
2022/07/31 03:35:48;;;;;;;2.28;1.08;;;18.50;99.90;;;;;;5015732;28;20092;-80
2022/07/31 03:38:14;;;;;;;1.00;0.82;;;18.50;99.90;;;;;;5018738;28;20100;-77
2022/07/31 03:40:40;;;;;;;1.25;1.15;;;18.50;99.90;;;;;;5021319;28;20116;-80
2022/07/31 03:43:06;;;;;;;0.95;0.85;;;18.50;99.90;;;;;;5020031;28;20030;-76
2022/07/31 03:45:34;;;;;;;2.60;0.95;;;18.50;99.90;;;;;;5009600;28;20542;-76
2022/07/31 03:48:01;;;;;;;1.33;0.88;;;18.50;99.90;;;;;;5014407;28;20038;-76
2022/07/31 03:50:27;;;;;;;0.65;0.65;;;18.50;99.90;;;;;;5000756;28;20499;-77
2022/07/31 03:52:53;;;;;;;1.50;0.65;;;18.40;99.90;;;;;;5018887;28;20041;-74
2022/07/31 03:55:19;;;;;;;1.00;0.60;;;18.40;99.90;;;;;;5016001;28;20390;-74
2022/07/31 03:57:46;;;;;;;0.70;0.70;;;18.40;99.90;;;;;;5018655;28;20022;-74
2022/07/31 04:00:12;;;;;;;1.52;0.88;;;18.40;99.90;;;;;;5014292;28;20041;-74
2022/07/31 04:02:37;;;;;;;1.55;0.80;;;18.40;99.90;;;;;;5019999;28;20128;-74
2022/07/31 04:05:04;;;;;;;1.48;0.80;;;18.40;99.90;;;;;;5008072;28;20112;-74
2022/07/31 04:07:30;;;;;;;0.80;0.80;;;18.40;99.90;;;;;;5010642;28;20505;-73
2022/07/31 04:09:55;;;;;;;0.65;0.65;;;18.30;99.90;;;;;;5016636;28;20041;-74
2022/07/31 04:12:21;;;;;;;1.02;0.93;;;18.30;99.90;;;;;;5018469;28;20022;-73
2022/07/31 04:14:47;;;;;;;0.90;0.90;;;18.30;99.90;;;;;;5015311;28;20499;-73
2022/07/31 04:17:13;;;;;;;1.70;0.90;;;18.20;99.90;;;;;;5017661;28;20533;-77
2022/07/31 04:19:39;;;;;;;1.52;0.90;;;18.10;99.90;;;;;;5015582;28;20029;-76
2022/07/31 04:22:06;;;;;;;0.90;0.80;;;18.10;99.90;;;;;;5017853;28;20116;-77
2022/07/31 04:24:32;;;;;;;0.73;0.70;;;18.10;99.90;;;;;;5012330;28;20033;-79
2022/07/31 04:26:58;;;;;;;0.95;0.77;;;18.00;99.90;;;;;;5010518;28;20032;-74
2022/07/31 04:29:27;;;;;;;1.13;0.70;;;18.00;99.90;;;;;;5019202;28;20095;-76
2022/07/31 04:31:53;;;;;;;0.90;0.90;;;17.90;99.90;;;;;;5016088;28;20379;-78
2022/07/31 04:34:19;;;;;;;0.50;0.50;;;18.00;99.90;;;;;;5021058;28;20415;-77
2022/07/31 04:36:44;;;;;;;2.42;0.70;;;18.00;99.90;;;;;;5021414;28;20036;-76
2022/07/31 04:39:10;;;;;;;0.57;0.50;;;18.00;99.90;;;;;;5018120;28;21809;-76
2022/07/31 04:41:36;;;;;;;0.30;0.30;;;18.00;99.90;;;;;;5017287;28;20091;-76
2022/07/31 04:44:01;;;;;;;0.20;0.20;;;18.00;99.90;;;;;;5022319;28;20041;-75
2022/07/31 04:46:27;;;;;;;0.65;0.30;;;18.00;99.90;;;;;;5011951;28;20049;-77
2022/07/31 04:48:53;;;;;;;0.15;0.15;;;18.00;99.90;;;;;;5021182;28;20508;-76
2022/07/31 04:51:23;;;;;;;2.20;0.20;;;18.00;99.90;;;;;;5021179;28;20100;-75
2022/07/31 04:53:50;;;;;;;0.30;0.20;;;18.00;99.90;;;;;;5021867;28;20108;-75
2022/07/31 04:56:32;;;;;;;0.38;0.15;;;18.00;99.90;;;;;;5017871;28;20523;-74
2022/07/31 04:59:00;;;;;;;1.30;0.10;;;17.80;99.90;;;;;;5019486;28;20394;-77
2022/07/31 05:01:26;;;;;;;2.22;0.30;;;17.80;99.90;;;;;;5019342;28;20029;-76
2022/07/31 05:03:52;;;;;;;0.20;0.10;;;17.70;99.90;;;;;;5016169;28;20083;-78
2022/07/31 05:06:17;;;;;;;0.35;0.10;;;17.70;99.90;;;;;;5022007;28;20040;-76
2022/07/31 05:08:43;;;;;;;0.32;0.10;;;17.70;99.90;;;;;;5015937;28;20608;-76
2022/07/31 05:11:24;;;;;;;2.85;0.35;;;17.80;99.90;;;;;;5016300;28;20029;-76
2022/07/31 05:13:50;;;;;;;0.55;0.10;;;17.70;99.90;;;;;;5018025;28;20219;-76
2022/07/31 05:16:17;;;;;;;0.22;0.10;;;17.80;99.90;;;;;;5014303;28;20116;-76
2022/07/31 05:18:44;;;;;;;0.20;0.20;;;17.80;99.90;;;;;;5018088;28;20042;-75
2022/07/31 05:21:11;;;;;;;1.75;0.10;;;17.80;99.90;;;;;;5017831;28;21775;-76
2022/07/31 05:23:38;;;;;;;1.45;0.20;;;17.80;99.90;;;;;;5016218;28;20512;-76
2022/07/31 05:26:04;;;;;;;0.00;0.00;;;17.80;99.90;;;;;;5017880;28;20040;-75
2022/07/31 05:28:30;;;;;;;0.43;0.20;;;17.90;99.90;;;;;;5017499;28;20041;-75
2022/07/31 05:30:56;;;;;;;1.08;0.13;;;18.00;99.90;;;;;;5016728;28;20131;-75
2022/07/31 05:33:22;;;;;;;1.45;0.10;;;18.00;99.90;;;;;;5018240;28;20080;-76
2022/07/31 05:35:48;;;;;;;0.15;0.15;;;17.90;99.90;;;;;;5015366;28;20082;-75
2022/07/31 05:38:14;;;;;;;0.65;0.20;;;17.90;99.90;;;;;;5016926;28;20456;-75
2022/07/31 05:40:40;;;;;;;1.20;0.30;;;17.80;99.90;;;;;;5009275;28;20065;-77
2022/07/31 05:43:06;;;;;;;0.88;0.20;;;17.70;99.90;;;;;;5019653;28;20041;-77
2022/07/31 05:45:32;;;;;;;0.63;0.22;;;17.60;99.90;;;;;;5018830;28;20033;-76
2022/07/31 05:47:57;;;;;;;0.15;0.15;;;17.70;99.90;;;;;;5017804;28;20134;-79
2022/07/31 05:50:23;;;;;;;1.15;0.20;;;17.60;99.90;;;;;;5014278;28;20029;-76
2022/07/31 05:52:48;;;;;;;0.50;0.30;;;17.60;99.90;;;;;;5014810;28;20604;-76
2022/07/31 05:55:15;;;;;;;0.25;0.25;;;17.60;99.90;;;;;;5008157;28;20471;-77
2022/07/31 05:57:41;;;;;;;0.25;0.25;;;17.60;99.90;;;;;;5016050;28;20033;-76
2022/07/31 06:00:07;;;;;;;0.28;0.25;;;17.50;99.90;;;;;;5014074;28;20801;-79
2022/07/31 06:02:33;;;;;;;1.85;0.30;;;17.50;99.90;;;;;;5019513;28;20042;-77
2022/07/31 06:05:00;;;;;;;0.20;0.20;;;17.50;99.90;;;;;;5014020;28;20060;-76
2022/07/31 06:07:26;;;;;;;0.68;0.15;;;17.60;99.90;;;;;;5019041;28;20053;-76
2022/07/31 06:09:52;;;;;;;0.13;0.13;;;17.50;99.90;;;;;;5017001;28;20128;-69
2022/07/31 06:12:18;;;;;;;0.50;0.13;;;17.50;99.90;;;;;;5016524;28;20117;-67
2022/07/31 06:14:44;;;;;;;0.40;0.28;;;17.50;99.90;;;;;;5012756;28;20034;-67
2022/07/31 06:17:10;;;;;;;1.13;0.35;;;17.40;99.90;;;;;;5018502;28;20038;-71
2022/07/31 06:19:36;;;;;;;0.30;0.30;;;17.40;99.90;;;;;;5018753;28;20030;-72
2022/07/31 06:22:02;;;;;;;0.20;0.20;;;17.40;99.90;;;;;;5019881;28;20049;-75
2022/07/31 06:24:27;;;;;;;0.40;0.20;;;17.40;99.90;;;;;;5016611;28;20060;-70
2022/07/31 06:27:00;;;;;;;0.47;0.30;;;17.30;99.90;;;;;;5011415;28;20073;-73
2022/07/31 06:29:29;;;;;;;0.30;0.30;;;17.30;99.90;;;;;;5015578;28;20049;-73
2022/07/31 06:31:55;;;;;;;0.40;0.40;;;17.30;99.90;;;;;;5010815;28;20033;-73
2022/07/31 06:34:22;;;;;;;0.35;0.30;;;17.30;99.90;;;;;;5012989;28;20034;-71
2022/07/31 06:36:48;;;;;;;0.32;0.32;;;17.30;99.90;;;;;;5019424;28;20038;-74
2022/07/31 06:39:14;;;;;;;1.30;0.98;;;17.30;99.90;;;;;;5013251;28;20033;-73
2022/07/31 06:41:43;;;;;;;0.25;0.25;;;17.30;99.90;;;;;;5008313;28;20115;-67
2022/07/31 06:44:09;;;;;;;0.50;0.50;;;17.20;99.90;;;;;;5021489;28;20026;-68
2022/07/31 06:46:35;;;;;;;0.32;0.28;;;17.20;99.90;;;;;;4999027;28;20041;-70
2022/07/31 06:49:01;;;;;;;0.22;0.22;;;17.30;99.90;;;;;;5018371;28;20048;-69
2022/07/31 06:51:26;;;;;;;2.05;0.30;;;17.30;99.90;;;;;;5012196;28;20040;-69
2022/07/31 06:53:52;;;;;;;0.17;0.17;;;17.40;99.90;;;;;;5013040;28;20885;-70
2022/07/31 06:56:18;;;;;;;0.40;0.28;;;17.40;99.90;;;;;;5013635;28;20018;-74
2022/07/31 06:58:43;;;;;;;0.10;0.10;;;17.50;99.90;;;;;;5021371;28;20109;-79
2022/07/31 07:01:09;;;;;;;2.08;0.20;;;17.40;99.90;;;;;;5017818;28;20107;-84
2022/07/31 07:03:35;;;;;;;1.38;0.25;;;17.50;99.90;;;;;;5016143;28;20076;-83
2022/07/31 07:06:02;;;;;;;0.35;0.35;;;17.50;99.90;;;;;;5009803;28;20037;-82
2022/07/31 07:08:28;;;;;;;0.20;0.20;;;17.60;99.90;;;;;;5012031;28;20056;-73
2022/07/31 07:10:54;;;;;;;0.10;0.10;;;17.60;99.90;;;;;;5016871;28;20029;-73
2022/07/31 07:13:19;;;;;;;0.10;0.10;;;17.70;99.90;;;;;;5013036;28;20037;-77
2022/07/31 07:15:45;;;;;;;0.40;0.20;;;17.80;99.90;;;;;;5015149;28;20037;-77
2022/07/31 07:18:11;;;;;;;0.20;0.10;;;17.90;99.90;;;;;;5016756;28;20026;-76
2022/07/31 07:20:37;;;;;;;1.08;0.10;;;18.00;99.90;;;;;;5022263;28;20148;-65
2022/07/31 07:23:02;;;;;;;0.20;0.20;;;18.10;99.90;;;;;;5016885;28;20375;-66
2022/07/31 07:25:28;;;;;;;0.30;0.20;;;18.20;99.90;;;;;;5006856;28;20045;-65
2022/07/31 07:27:55;;;;;;;0.20;0.20;;;18.40;99.90;;;;;;5014999;28;20371;-66
2022/07/31 07:30:21;;;;;;;0.10;0.10;;;18.60;99.90;;;;;;5008762;28;20029;-72
2022/07/31 07:32:47;;;;;;;0.10;0.10;;;18.70;99.90;;;;;;5016118;28;20030;-67
2022/07/31 07:35:13;;;;;;;0.15;0.03;;;18.80;99.90;;;;;;5010908;28;20034;-65
2022/07/31 07:37:39;;;;;;;0.43;0.10;;;18.70;99.90;;;;;;5005237;28;20382;-66
2022/07/31 07:40:09;;;;;;;1.10;0.10;;;18.60;99.90;;;;;;5012414;28;20482;-65
2022/07/31 07:42:34;;;;;;;0.20;0.20;;;18.60;99.90;;;;;;5006524;28;20121;-67
2022/07/31 07:45:00;;;;;;;0.68;0.45;;;18.60;99.90;;;;;;5018041;28;20129;-67
2022/07/31 07:47:26;;;;;;;0.20;0.20;;;18.60;99.90;;;;;;5017099;28;21747;-78
2022/07/31 07:49:52;;;;;;;0.17;0.10;;;18.70;99.90;;;;;;5012628;28;20080;-79
2022/07/31 07:52:18;;;;;;;0.20;0.10;;;18.60;99.90;;;;;;5009542;28;20034;-64
2022/07/31 07:54:43;;;;;;;0.38;0.20;;;18.70;99.90;;;;;;5005819;28;20033;-63
2022/07/31 07:57:17;;;;;;;1.45;0.20;;;18.60;99.90;;;;;;5005007;28;20037;-65
2022/07/31 07:59:43;;;;;;;0.20;0.20;;;18.70;99.90;;;;;;4999193;28;20530;-65
2022/07/31 08:02:09;;;;;;;0.10;0.10;;;18.60;99.90;;;;;;5003216;28;20175;-68
2022/07/31 08:04:35;;;;;;;1.23;0.20;;;18.60;99.90;;;;;;5001818;28;20242;-67
2022/07/31 08:07:00;;;;;;;0.40;0.10;;;18.60;99.90;;;;;;5001754;28;20041;-67
2022/07/31 08:09:28;;;;;;;0.20;0.20;;;18.50;99.90;;;;;;5003194;28;20050;-67
2022/07/31 08:11:54;;;;;;;0.15;0.15;;;18.50;99.90;;;;;;5010590;28;20025;-73
2022/07/31 08:14:20;;;;;;;3.40;0.30;;;18.60;99.90;;;;;;5006448;28;20509;-67
2022/07/31 08:16:46;;;;;;;1.35;0.20;;;18.50;99.90;;;;;;5007601;28;20029;-66
2022/07/31 08:19:12;;;;;;;0.25;0.25;;;18.50;99.90;;;;;;5003865;28;20038;-67
2022/07/31 08:21:38;;;;;;;0.28;0.28;;;18.50;99.90;;;;;;5019807;28;20057;-70
2022/07/31 08:24:04;;;;;;;0.20;0.20;;;18.50;99.90;;;;;;5016310;28;20021;-70
2022/07/31 08:27:22;;;;;;;0.43;0.30;;;18.50;99.90;;;;;;5013799;28;20591;-68
2022/07/31 08:29:16;;;;;;;1.27;0.28;;;18.60;99.90;;;;;;5017480;28;20513;-68
2022/07/31 08:31:42;;;;;;;0.43;0.20;;;18.60;99.90;;;;;;5013494;28;20033;-68
2022/07/31 08:34:08;;;;;;;3.85;0.30;;;18.70;99.90;;;;;;5015302;28;20579;-70
2022/07/31 08:36:34;;;;;;;0.60;0.40;;;18.80;99.90;;;;;;5015111;28;20543;-68
2022/07/31 08:39:00;;;;;;;6.68;0.98;;;18.90;99.90;;;;;;5018858;28;20029;-70
2022/07/31 08:41:25;;;;;;;8.20;1.10;;;18.90;99.90;;;;;;5020212;28;20096;-69
2022/07/31 08:43:51;;;;;;;10.77;1.88;;;18.90;99.90;;;;;;5024434;28;20022;-68
2022/07/31 08:46:18;;;;;;;1.48;0.30;;;18.80;99.90;;;;;;5021564;28;20038;-70
2022/07/31 08:48:44;;;;;;;0.95;0.35;;;18.80;99.90;;;;;;5023626;28;20049;-69
2022/07/31 08:51:11;;;;;;;1.48;0.30;;;18.80;99.90;;;;;;5019120;28;20033;-70
2022/07/31 08:53:38;;;;;;;0.80;0.20;;;18.90;99.90;;;;;;5019020;28;20046;-67
2022/07/31 08:56:08;;;;;;;9.15;1.13;;;18.90;99.90;;;;;;5009040;28;20029;-68
2022/07/31 08:58:33;;;;;;;19.10;2.20;;;18.70;99.90;;;;;;5004775;28;20049;-67
2022/07/31 09:01:00;;;;;;;3.25;1.25;;;18.70;99.90;;;;;;5009852;28;20109;-68
2022/07/31 09:03:26;;;;;;;0.30;0.20;;;18.80;99.90;;;;;;5014539;28;20045;-68
2022/07/31 09:05:52;;;;;;;0.20;0.20;;;18.80;99.90;;;;;;5013561;28;20520;-67
2022/07/31 09:08:17;;;;;;;18.70;2.63;;;18.90;99.90;;;;;;5012022;28;20041;-70
2022/07/31 09:10:43;;;;;;;1.63;0.50;;;18.90;99.90;;;;;;5016396;28;20046;-69
2022/07/31 09:13:17;;;;;;;3.40;0.77;;;18.90;99.90;;;;;;5009371;28;20022;-69
2022/07/31 09:15:43;;;;;;;1.02;0.52;;;18.90;99.90;;;;;;5007590;28;20029;-69
2022/07/31 09:18:27;;;;;;;0.30;0.28;;;19.00;99.90;;;;;;5016509;28;20189;-70
2022/07/31 09:20:56;;;;;;;0.47;0.20;;;19.00;99.90;;;;;;5011157;28;20038;-68
2022/07/31 09:23:23;;;;;;;0.20;0.20;;;19.00;99.90;;;;;;5017202;28;20033;-69
2022/07/31 09:25:54;;;;;;;0.52;0.50;;;19.00;99.90;;;;;;5014612;28;20067;-69
2022/07/31 09:28:20;;;;;;;0.38;0.30;;;19.00;99.90;;;;;;5015534;28;20041;-70
2022/07/31 09:30:55;;;;;;;0.20;0.20;;;19.00;99.90;;;;;;5015159;28;20028;-70
2022/07/31 09:33:21;;;;;;;0.20;0.20;;;19.00;99.90;;;;;;5011684;28;20021;-73
2022/07/31 09:35:51;;;;;;;0.30;0.30;;;19.00;99.90;;;;;;5014780;28;20379;-68
2022/07/31 09:38:18;;;;;;;2.67;0.40;;;18.80;99.90;;;;;;5017407;28;20020;-69
2022/07/31 09:40:45;;;;;;;1.92;0.20;;;18.90;99.90;;;;;;5012353;28;20353;-69
2022/07/31 09:43:18;;;;;;;0.10;0.10;;;18.90;99.90;;;;;;5016155;28;20121;-69
2022/07/31 09:45:57;;;;;;;2.95;0.20;;;19.00;99.90;;;;;;5014751;28;20017;-68
2022/07/31 09:48:23;;;;;;;0.20;0.20;;;19.00;99.90;;;;;;5013516;28;20037;-68
2022/07/31 09:50:54;;;;;;;0.45;0.20;;;19.00;99.90;;;;;;5017330;28;20482;-67
2022/07/31 09:53:20;;;;;;;0.20;0.20;;;18.90;99.90;;;;;;5014201;28;20732;-68
2022/07/31 09:55:54;;;;;;;1.90;0.20;;;19.00;99.90;;;;;;5021018;28;20025;-69
2022/07/31 09:58:21;;;;;;;0.22;0.20;;;19.00;99.90;;;;;;5011710;28;20033;-69
2022/07/31 10:00:48;;;;;;;0.20;0.10;;;19.00;99.90;;;;;;5012173;28;20872;-70
2022/07/31 10:03:17;;;;;;;1.65;0.20;;;19.20;99.90;;;;;;5016683;28;20025;-67
2022/07/31 10:05:44;;;;;;;1.20;0.30;;;19.30;99.90;;;;;;5022004;28;20078;-67
2022/07/31 10:08:12;;;;;;;0.30;0.30;;;19.20;99.90;;;;;;5011800;28;20139;-66
2022/07/31 10:10:38;;;;;;;0.40;0.40;;;19.20;99.90;;;;;;5008235;28;20030;-66
2022/07/31 10:13:09;;;;;;;0.30;0.30;;;19.30;99.90;;;;;;5015600;28;20037;-67
2022/07/31 10:15:37;;;;;;;0.30;0.30;;;19.30;99.90;;;;;;5013138;28;20717;-67
2022/07/31 10:18:04;;;;;;;0.50;0.40;;;19.40;99.90;;;;;;5017769;28;20121;-67
2022/07/31 10:20:32;;;;;;;0.63;0.35;;;19.40;99.90;;;;;;5018152;28;20156;-67
2022/07/31 10:23:09;;;;;;;0.68;0.50;;;19.40;99.90;;;;;;5018185;28;20029;-67
2022/07/31 10:25:43;;;;;;;1.38;0.50;;;19.40;99.90;;;;;;5012037;28;20355;-65
2022/07/31 10:28:09;;;;;;;1.20;0.40;;;19.40;99.90;;;;;;5009141;28;20053;-67
2022/07/31 10:30:35;;;;;;;0.43;0.43;;;19.20;99.90;;;;;;5010372;28;20548;-67
2022/07/31 10:33:05;;;;;;;0.40;0.40;;;19.10;99.90;;;;;;5011748;28;20045;-66
2022/07/31 10:35:33;;;;;;;0.82;0.45;;;19.00;99.90;;;;;;5009259;28;20036;-70
2022/07/31 10:38:19;;;;;;;1.25;0.40;;;18.90;99.90;;;;;;5016757;28;20053;-69
2022/07/31 10:40:56;;;;;;;0.40;0.30;;;19.00;99.90;;;;;;5006674;28;20670;-69
2022/07/31 10:43:27;;;;;;;0.60;0.40;;;19.00;99.90;;;;;;5012083;28;20034;-68
2022/07/31 10:45:54;;;;;;;1.27;0.50;;;19.00;99.90;;;;;;5012992;28;20578;-67
2022/07/31 10:48:21;;;;;;;0.60;0.60;;;18.90;99.90;;;;;;5015189;28;20045;-67
2022/07/31 10:50:59;;;;;;;0.95;0.40;;;18.90;99.90;;;;;;5008129;28;20099;-67
2022/07/31 10:53:24;;;;;;;1.17;0.43;;;18.90;99.90;;;;;;5002374;28;20033;-67
2022/07/31 10:56:00;;;;;;;0.52;0.50;;;19.00;99.90;;;;;;4998128;28;20159;-67
2022/07/31 10:58:26;;;;;;;1.65;0.50;;;19.00;99.90;;;;;;4999045;28;20041;-66
2022/07/31 11:01:02;;;;;;;0.57;0.47;;;18.80;99.90;;;;;;5011227;28;20041;-67
2022/07/31 11:03:37;;;;;;;0.35;0.35;;;18.90;99.90;;;;;;5004938;28;20120;-65
2022/07/31 11:06:03;;;;;;;0.60;0.60;;;18.90;99.90;;;;;;5005494;28;20041;-67
2022/07/31 11:08:42;;;;;;;0.32;0.32;;;18.80;99.90;;;;;;5004249;28;20057;-65
2022/07/31 11:11:08;;;;;;;1.75;0.50;;;18.90;99.90;;;;;;5011684;28;20056;-66
2022/07/31 11:13:48;;;;;;;0.70;0.50;;;19.00;99.90;;;;;;5014236;28;20026;-64
2022/07/31 11:16:14;;;;;;;0.70;0.40;;;19.00;99.90;;;;;;5002256;28;20386;-65
2022/07/31 11:18:39;;;;;;;0.77;0.50;;;19.00;99.90;;;;;;5011433;28;20045;-65
2022/07/31 11:21:08;;;;;;;0.40;0.40;;;19.00;99.90;;;;;;5010167;28;20041;-66
2022/07/31 11:23:35;;;;;;;0.90;0.35;;;18.90;99.90;;;;;;5007519;28;20090;-66
2022/07/31 11:26:04;;;;;;;0.40;0.40;;;18.90;99.90;;;;;;5012613;28;20033;-65
2022/07/31 11:28:29;;;;;;;1.08;0.70;;;18.90;99.90;;;;;;5017369;28;20041;-66
2022/07/31 11:30:59;;;;;;;0.50;0.50;;;18.90;99.90;;;;;;5019835;28;20083;-66
2022/07/31 11:33:48;;;;;;;0.40;0.40;;;19.00;99.90;;;;;;5012309;28;20030;-66
2022/07/31 11:36:24;;;;;;;1.35;0.57;;;19.00;99.90;;;;;;5006006;28;20068;-67
2022/07/31 11:38:56;;;;;;;0.70;0.50;;;19.00;99.90;;;;;;5012207;28;20025;-66
2022/07/31 11:41:31;;;;;;;;;;;19.10;99.90;;;;;;5002272;28;20029;-66
2022/07/31 11:43:56;;;;;;;0.68;0.60;;;19.10;99.90;;;;;;5013900;28;19924;-67
2022/07/31 11:46:27;;;;;;;2.47;0.50;;;19.00;99.90;;;;;;5017431;28;20105;-66
2022/07/31 11:48:54;;;;;;;0.63;0.63;;;18.90;99.90;;;;;;5009850;28;20042;-67
2022/07/31 11:51:20;;;;;;;0.85;0.68;;;18.90;99.90;;;;;;5011188;28;20465;-65
2022/07/31 11:53:48;;;;;;;1.33;0.60;;;18.80;99.90;;;;;;5013400;28;20128;-66
2022/07/31 11:56:16;;;;;;;0.50;0.50;;;18.90;99.90;;;;;;5006455;28;20037;-66
2022/07/31 11:58:50;;;;;;;1.52;0.70;;;18.80;99.90;;;;;;5009582;28;20066;-65
2022/07/31 12:01:17;;;;;;;1.25;0.75;;;18.70;99.90;;;;;;5012453;28;20033;-65
2022/07/31 12:03:45;;;;;;;1.67;0.70;;;18.70;99.90;;;;;;5011035;28;20548;-65
2022/07/31 12:06:11;;;;;;;0.55;0.55;;;18.70;99.90;;;;;;5013034;28;20073;-66
2022/07/31 12:08:38;;;;;;;0.95;0.77;;;18.60;99.90;;;;;;5008955;28;20411;-65
2022/07/31 12:11:07;;;;;;;1.15;0.65;;;18.70;99.90;;;;;;5008879;28;20084;-68
2022/07/31 12:13:33;;;;;;;1.50;0.40;;;18.70;99.90;;;;;;5007697;28;20037;-65
2022/07/31 12:16:07;;;;;;;1.65;0.60;;;18.60;99.90;;;;;;5004130;28;20030;-66
2022/07/31 12:18:59;;;;;;;1.25;0.52;;;18.60;99.90;;;;;;5010515;28;20108;-65
2022/07/31 12:21:38;;;;;;;0.73;0.60;;;18.60;99.90;;;;;;5006498;28;20045;-67
2022/07/31 12:24:13;;;;;;;0.95;0.60;;;18.50;99.90;;;;;;5010263;28;20526;-66
2022/07/31 12:26:47;;;;;;;0.63;0.47;;;18.40;99.90;;;;;;5000799;28;20771;-66
2022/07/31 12:29:13;;;;;;;0.55;0.55;;;18.40;99.90;;;;;;5009688;28;20025;-66
2022/07/31 12:31:49;;;;;;;1.55;0.57;;;18.30;99.90;;;;;;5003691;28;20525;-67
2022/07/31 12:34:31;;;;;;;2.85;0.85;;;18.40;99.90;;;;;;5010648;28;20490;-67
2022/07/31 12:37:11;;;;;;;0.55;0.55;;;18.30;99.90;;;;;;5013207;28;20065;-68
2022/07/31 12:39:49;;;;;;;1.83;0.65;;;18.30;99.90;;;;;;5012706;28;20098;-68
2022/07/31 12:42:25;;;;;;;0.95;0.85;;;18.20;99.90;;;;;;5003866;28;20030;-67
2022/07/31 12:44:52;;;;;;;0.52;0.52;;;18.20;99.90;;;;;;5009943;28;20774;-65
2022/07/31 12:47:21;;;;;;;0.77;0.60;;;18.20;99.90;;;;;;4987743;28;20732;-65
2022/07/31 12:49:47;;;;;;;1.42;0.90;;;18.30;99.90;;;;;;5000793;28;20038;-65
2022/07/31 12:52:12;;;;;;;0.52;0.52;;;18.20;99.90;;;;;;5007943;28;20053;-65
2022/07/31 12:54:38;;;;;;;0.55;0.55;;;18.20;99.90;;;;;;5015425;28;20155;-64